Audrey — PD9331 — position and weather

sailwx.info

Track history (hours):
 
Tides and Currents Weather Stations Pressure Air Temp Water Temp Dewpoint Dewpoint Depression Visibility Wind Speed Wind Dir Waves Ship Positions

Audrey

Last reported at 2014-Oct-29 13:34 UTC. Time now 2014-Oct-31 06:18 UTC.
Position N 51°49' E 004°41'.

Length 85 m; draft 2.3 m.

Type: Other ship. MMSI: 244660106.

Date/timePositionNaut miles runAvg speedWind from/ knotsBaromVisibWave heightAir tempDewpointWater temp
2014-Oct-29 13:34N 51°49' E 004°41'1 1.0
2014-Oct-29 12:33N 51°49' E 004°42'1010.4
2014-Oct-29 11:33N 51°49' E 004°59'1010.4
2014-Oct-29 10:33N 51°49' E 005°16'9 8.4
2014-Oct-29 09:33N 51°54' E 005°27'6 5.8
2014-Oct-29 08:33N 51°58' E 005°21'5 5.0
2014-Oct-29 07:33N 51°59' E 005°29'7 6.6
2014-Oct-29 06:33N 51°57' E 005°39'0 0.0
2014-Oct-29 05:32N 51°57' E 005°39'0 0.0
2014-Oct-29 04:33N 51°57' E 005°39'0 0.0
2014-Oct-29 03:33N 51°57' E 005°39'0 0.0
2014-Oct-29 02:32N 51°57' E 005°39'0 0.0
2014-Oct-29 01:33N 51°57' E 005°39'0 0.0
2014-Oct-29 00:33N 51°57' E 005°39'0 0.0
2014-Oct-28 23:33N 51°57' E 005°39'0 0.0
2014-Oct-28 22:32N 51°57' E 005°39'0 0.0
2014-Oct-28 21:20N 51°57' E 005°39'0 0.0
2014-Oct-28 20:33N 51°57' E 005°39'0 0.0
2014-Oct-28 19:31N 51°57' E 005°39'0 0.0
2014-Oct-28 18:31N 51°57' E 005°39'0 0.0
2014-Oct-28 17:33N 51°57' E 005°39'0 0.0
2014-Oct-28 16:33N 51°57' E 005°39'0 0.0
2014-Oct-28 15:32N 51°57' E 005°39'0 0.0
2014-Oct-28 14:32N 51°57' E 005°39'0 0.1
2014-Oct-28 10:05N 51°58' E 005°40'0 0.0
2014-Oct-27 17:33N 51°58' E 005°39'0 0.0
2014-Oct-27 16:24N 51°58' E 005°39'0 0.0
2014-Oct-27 14:33N 51°58' E 005°39'0 0.0
2014-Oct-27 13:33N 51°58' E 005°39'0 0.0
2014-Oct-27 12:32N 51°58' E 005°39'0 0.0
2014-Oct-27 10:31N 51°58' E 005°39'0 0.0
2014-Oct-27 09:33N 51°58' E 005°39'0 0.0
2014-Oct-27 08:33N 51°58' E 005°39'0 0.0
2014-Oct-27 07:33N 51°58' E 005°39'0 0.0
2014-Oct-27 06:33N 51°58' E 005°39'0 0.0
2014-Oct-27 05:33N 51°58' E 005°39'0 0.0
2014-Oct-27 04:33N 51°58' E 005°39'0 0.0
2014-Oct-27 03:33N 51°58' E 005°39'0 0.0
2014-Oct-27 02:33N 51°58' E 005°39'0 0.0
2014-Oct-27 01:33N 51°58' E 005°39'0 0.0
2014-Oct-27 00:33N 51°58' E 005°39'0 0.0
2014-Oct-26 23:33N 51°58' E 005°39'0 0.0
2014-Oct-26 22:33N 51°58' E 005°39'0 0.0
2014-Oct-26 21:33N 51°58' E 005°39'0 0.0
2014-Oct-26 20:32N 51°58' E 005°39'0 0.0
2014-Oct-26 19:33N 51°58' E 005°39'0 0.0
2014-Oct-26 18:33N 51°58' E 005°39'0 0.0
2014-Oct-26 17:33N 51°58' E 005°39'0 0.0
2014-Oct-26 16:33N 51°58' E 005°39'0 0.0
2014-Oct-26 15:32N 51°58' E 005°39'0 0.0
2014-Oct-26 14:33N 51°58' E 005°39'0 0.0
2014-Oct-26 13:33N 51°58' E 005°39'0 0.0
2014-Oct-26 12:33N 51°58' E 005°39'0 0.0
2014-Oct-26 11:33N 51°58' E 005°39'0 0.0
2014-Oct-26 10:33N 51°58' E 005°39'0 0.0
2014-Oct-26 09:33N 51°58' E 005°39'0 0.0
2014-Oct-26 08:33N 51°58' E 005°39'0 0.0
2014-Oct-26 07:33N 51°58' E 005°39'0 0.0
2014-Oct-26 06:32N 51°58' E 005°39'0 0.0
2014-Oct-26 05:33N 51°58' E 005°39'0 0.0
2014-Oct-26 04:33N 51°58' E 005°39'0 0.0
2014-Oct-26 03:33N 51°58' E 005°39'0 0.0
2014-Oct-26 02:33N 51°58' E 005°39'0 0.0
2014-Oct-26 01:33N 51°58' E 005°39'0 0.0
2014-Oct-26 00:33N 51°58' E 005°39'0 0.0
2014-Oct-25 23:33N 51°58' E 005°39'0 0.0
2014-Oct-25 22:33N 51°58' E 005°39'0 0.0
2014-Oct-25 21:33N 51°58' E 005°39'0 0.0
2014-Oct-25 20:33N 51°58' E 005°39'0 0.0
2014-Oct-25 19:32N 51°58' E 005°39'0 0.0
2014-Oct-25 18:33N 51°58' E 005°39'0 0.0
2014-Oct-25 17:33N 51°58' E 005°39'0 0.0
2014-Oct-25 16:33N 51°58' E 005°39'0 0.0
2014-Oct-25 15:33N 51°58' E 005°39'0 0.0
2014-Oct-25 14:33N 51°58' E 005°39'0 0.0
2014-Oct-25 13:33N 51°58' E 005°39'0 0.0
2014-Oct-25 12:33N 51°58' E 005°39'0 0.2
2014-Oct-25 11:33N 51°57' E 005°39'5 5.3
2014-Oct-25 10:33N 51°58' E 005°47'4 3.6
2014-Oct-25 09:33N 51°59' E 005°53'39 7.8
2014-Oct-25 04:33N 51°34' E 006°41'7 6.9
2014-Oct-25 03:32N 51°27' E 006°43'6 6.5
2014-Oct-25 02:32N 51°21' E 006°40'0 0.0
2014-Oct-25 01:33N 51°21' E 006°40'0 0.0
2014-Oct-24 21:05N 51°21' E 006°40'0 0.0
2014-Oct-24 18:33N 51°21' E 006°40'7 7.0
2014-Oct-24 17:33N 51°14' E 006°46'5 5.4
2014-Oct-24 16:33N 51°09' E 006°47'8 6.0
2014-Oct-24 15:18N 51°03' E 006°55'6 7.4
2014-Oct-24 14:25N 50°57' E 006°58'  
Track history (hours):
 
Tides and Currents Weather Stations Pressure Air Temp Water Temp Dewpoint Dewpoint Depression Visibility Wind Speed Wind Dir Waves Ship Positions

Audrey

Last reported at 2014-Oct-29 13:34 UTC. Time now 2014-Oct-31 06:18 UTC.
Position N 51°49' E 004°41'.

Length 85 m; draft 2.3 m.

Type: Other ship. MMSI: 244660106.

Date/timePositionNaut miles runAvg speedWind from/ knotsBaromVisibWave heightAir tempDewpointWater temp
2014-Oct-29 13:34N 51°49' E 004°41'1 1.0
2014-Oct-29 12:33N 51°49' E 004°42'1010.4
2014-Oct-29 11:33N 51°49' E 004°59'1010.4
2014-Oct-29 10:33N 51°49' E 005°16'9 8.4
2014-Oct-29 09:33N 51°54' E 005°27'6 5.8
2014-Oct-29 08:33N 51°58' E 005°21'5 5.0
2014-Oct-29 07:33N 51°59' E 005°29'7 6.6
2014-Oct-29 06:33N 51°57' E 005°39'0 0.0
2014-Oct-29 05:32N 51°57' E 005°39'0 0.0
2014-Oct-29 04:33N 51°57' E 005°39'0 0.0
2014-Oct-29 03:33N 51°57' E 005°39'0 0.0
2014-Oct-29 02:32N 51°57' E 005°39'0 0.0
2014-Oct-29 01:33N 51°57' E 005°39'0 0.0
2014-Oct-29 00:33N 51°57' E 005°39'0 0.0
2014-Oct-28 23:33N 51°57' E 005°39'0 0.0
2014-Oct-28 22:32N 51°57' E 005°39'0 0.0
2014-Oct-28 21:20N 51°57' E 005°39'0 0.0
2014-Oct-28 20:33N 51°57' E 005°39'0 0.0
2014-Oct-28 19:31N 51°57' E 005°39'0 0.0
2014-Oct-28 18:31N 51°57' E 005°39'0 0.0
2014-Oct-28 17:33N 51°57' E 005°39'0 0.0
2014-Oct-28 16:33N 51°57' E 005°39'0 0.0
2014-Oct-28 15:32N 51°57' E 005°39'0 0.0
2014-Oct-28 14:32N 51°57' E 005°39'0 0.1
2014-Oct-28 10:05N 51°58' E 005°40'0 0.0
2014-Oct-27 17:33N 51°58' E 005°39'0 0.0
2014-Oct-27 16:24N 51°58' E 005°39'0 0.0
2014-Oct-27 14:33N 51°58' E 005°39'0 0.0
2014-Oct-27 13:33N 51°58' E 005°39'0 0.0
2014-Oct-27 12:32N 51°58' E 005°39'0 0.0
2014-Oct-27 10:31N 51°58' E 005°39'0 0.0
2014-Oct-27 09:33N 51°58' E 005°39'0 0.0
2014-Oct-27 08:33N 51°58' E 005°39'0 0.0
2014-Oct-27 07:33N 51°58' E 005°39'0 0.0
2014-Oct-27 06:33N 51°58' E 005°39'0 0.0
2014-Oct-27 05:33N 51°58' E 005°39'0 0.0
2014-Oct-27 04:33N 51°58' E 005°39'0 0.0
2014-Oct-27 03:33N 51°58' E 005°39'0 0.0
2014-Oct-27 02:33N 51°58' E 005°39'0 0.0
2014-Oct-27 01:33N 51°58' E 005°39'0 0.0
2014-Oct-27 00:33N 51°58' E 005°39'0 0.0
2014-Oct-26 23:33N 51°58' E 005°39'0 0.0
2014-Oct-26 22:33N 51°58' E 005°39'0 0.0
2014-Oct-26 21:33N 51°58' E 005°39'0 0.0
2014-Oct-26 20:32N 51°58' E 005°39'0 0.0
2014-Oct-26 19:33N 51°58' E 005°39'0 0.0
2014-Oct-26 18:33N 51°58' E 005°39'0 0.0
2014-Oct-26 17:33N 51°58' E 005°39'0 0.0
2014-Oct-26 16:33N 51°58' E 005°39'0 0.0
2014-Oct-26 15:32N 51°58' E 005°39'0 0.0
2014-Oct-26 14:33N 51°58' E 005°39'0 0.0
2014-Oct-26 13:33N 51°58' E 005°39'0 0.0
2014-Oct-26 12:33N 51°58' E 005°39'0 0.0
2014-Oct-26 11:33N 51°58' E 005°39'0 0.0
2014-Oct-26 10:33N 51°58' E 005°39'0 0.0
2014-Oct-26 09:33N 51°58' E 005°39'0 0.0
2014-Oct-26 08:33N 51°58' E 005°39'0 0.0
2014-Oct-26 07:33N 51°58' E 005°39'0 0.0
2014-Oct-26 06:32N 51°58' E 005°39'0 0.0
2014-Oct-26 05:33N 51°58' E 005°39'0 0.0
2014-Oct-26 04:33N 51°58' E 005°39'0 0.0
2014-Oct-26 03:33N 51°58' E 005°39'0 0.0
2014-Oct-26 02:33N 51°58' E 005°39'0 0.0
2014-Oct-26 01:33N 51°58' E 005°39'0 0.0
2014-Oct-26 00:33N 51°58' E 005°39'0 0.0
2014-Oct-25 23:33N 51°58' E 005°39'0 0.0
2014-Oct-25 22:33N 51°58' E 005°39'0 0.0
2014-Oct-25 21:33N 51°58' E 005°39'0 0.0
2014-Oct-25 20:33N 51°58' E 005°39'0 0.0
2014-Oct-25 19:32N 51°58' E 005°39'0 0.0
2014-Oct-25 18:33N 51°58' E 005°39'0 0.0
2014-Oct-25 17:33N 51°58' E 005°39'0 0.0
2014-Oct-25 16:33N 51°58' E 005°39'0 0.0
2014-Oct-25 15:33N 51°58' E 005°39'0 0.0
2014-Oct-25 14:33N 51°58' E 005°39'0 0.0
2014-Oct-25 13:33N 51°58' E 005°39'0 0.0
2014-Oct-25 12:33N 51°58' E 005°39'0 0.2
2014-Oct-25 11:33N 51°57' E 005°39'5 5.3
2014-Oct-25 10:33N 51°58' E 005°47'4 3.6
2014-Oct-25 09:33N 51°59' E 005°53'39 7.8
2014-Oct-25 04:33N 51°34' E 006°41'7 6.9
2014-Oct-25 03:32N 51°27' E 006°43'6 6.5
2014-Oct-25 02:32N 51°21' E 006°40'0 0.0
2014-Oct-25 01:33N 51°21' E 006°40'0 0.0
2014-Oct-24 21:05N 51°21' E 006°40'0 0.0
2014-Oct-24 18:33N 51°21' E 006°40'7 7.0
2014-Oct-24 17:33N 51°14' E 006°46'5 5.4
2014-Oct-24 16:33N 51°09' E 006°47'8 6.0
2014-Oct-24 15:18N 51°03' E 006°55'6 7.4
2014-Oct-24 14:25N 50°57' E 006°58'  

Dump ship's entire track history